sensor_id;sensor_type;location;lat;lon;timestamp;temperature;humidity
35491;DHT22;21605;52.068;20.806;2023-01-15T00:01:38;5.70;99.90
35491;DHT22;21605;52.068;20.806;2023-01-15T00:04:10;5.60;99.90
35491;DHT22;21605;52.068;20.806;2023-01-15T00:06:39;5.60;99.90
35491;DHT22;21605;52.068;20.806;2023-01-15T00:09:06;5.60;99.90
35491;DHT22;21605;52.068;20.806;2023-01-15T00:11:32;6.00;99.90
35491;DHT22;21605;52.068;20.806;2023-01-15T00:13:58;5.60;99.90
35491;DHT22;21605;52.068;20.806;2023-01-15T00:16:25;5.60;99.90
35491;DHT22;21605;52.068;20.806;2023-01-15T00:18:56;5.70;99.90
35491;DHT22;21605;52.068;20.806;2023-01-15T00:21:23;5.60;99.90
35491;DHT22;21605;52.068;20.806;2023-01-15T00:23:49;5.60;99.90
35491;DHT22;21605;52.068;20.806;2023-01-15T00:26:34;5.60;99.90
35491;DHT22;21605;52.068;20.806;2023-01-15T00:29:19;5.70;99.90
35491;DHT22;21605;52.068;20.806;2023-01-15T00:32:14;5.60;99.90
35491;DHT22;21605;52.068;20.806;2023-01-15T00:34:39;5.60;99.90
35491;DHT22;21605;52.068;20.806;2023-01-15T00:37:14;5.60;99.90
35491;DHT22;21605;52.068;20.806;2023-01-15T00:39:39;5.60;99.90
35491;DHT22;21605;52.068;20.806;2023-01-15T00:42:05;5.60;99.90
35491;DHT22;21605;52.068;20.806;2023-01-15T00:44:31;5.60;99.90
35491;DHT22;21605;52.068;20.806;2023-01-15T00:46:57;5.80;99.90
35491;DHT22;21605;52.068;20.806;2023-01-15T00:49:23;5.60;99.90
35491;DHT22;21605;52.068;20.806;2023-01-15T00:51:49;5.60;99.90
35491;DHT22;21605;52.068;20.806;2023-01-15T00:54:15;6.10;99.90
35491;DHT22;21605;52.068;20.806;2023-01-15T00:56:41;5.70;99.90
35491;DHT22;21605;52.068;20.806;2023-01-15T00:59:06;5.60;99.90
35491;DHT22;21605;52.068;20.806;2023-01-15T01:01:32;5.60;99.90
35491;DHT22;21605;52.068;20.806;2023-01-15T01:03:58;5.60;99.90
35491;DHT22;21605;52.068;20.806;2023-01-15T01:06:24;5.50;99.90
35491;DHT22;21605;52.068;20.806;2023-01-15T01:08:49;5.60;99.90
35491;DHT22;21605;52.068;20.806;2023-01-15T01:11:17;5.50;99.90
35491;DHT22;21605;52.068;20.806;2023-01-15T01:13:44;3.60;99.90
35491;DHT22;21605;52.068;20.806;2023-01-15T01:16:30;5.60;99.90
35491;DHT22;21605;52.068;20.806;2023-01-15T01:18:59;5.40;99.90
35491;DHT22;21605;52.068;20.806;2023-01-15T01:21:26;5.40;99.90
35491;DHT22;21605;52.068;20.806;2023-01-15T01:23:52;5.40;99.90
35491;DHT22;21605;52.068;20.806;2023-01-15T01:26:18;5.40;99.90
35491;DHT22;21605;52.068;20.806;2023-01-15T01:28:48;5.30;99.90
35491;DHT22;21605;52.068;20.806;2023-01-15T01:31:16;5.30;99.90
35491;DHT22;21605;52.068;20.806;2023-01-15T01:33:42;5.40;99.90
35491;DHT22;21605;52.068;20.806;2023-01-15T01:36:24;5.40;99.90
35491;DHT22;21605;52.068;20.806;2023-01-15T01:38:50;5.30;99.90
35491;DHT22;21605;52.068;20.806;2023-01-15T01:41:16;5.30;99.90
35491;DHT22;21605;52.068;20.806;2023-01-15T01:44:01;5.20;99.90
35491;DHT22;21605;52.068;20.806;2023-01-15T01:46:30;5.30;99.90
35491;DHT22;21605;52.068;20.806;2023-01-15T01:49:05;5.20;99.90
35491;DHT22;21605;52.068;20.806;2023-01-15T01:52:01;5.20;99.90
35491;DHT22;21605;52.068;20.806;2023-01-15T01:54:30;5.20;99.90
35491;DHT22;21605;52.068;20.806;2023-01-15T01:56:56;5.30;99.90
35491;DHT22;21605;52.068;20.806;2023-01-15T01:59:23;5.10;99.90
35491;DHT22;21605;52.068;20.806;2023-01-15T02:01:50;5.10;99.90
35491;DHT22;21605;52.068;20.806;2023-01-15T02:04:21;5.20;99.90
35491;DHT22;21605;52.068;20.806;2023-01-15T02:06:48;5.10;99.90
35491;DHT22;21605;52.068;20.806;2023-01-15T02:09:16;5.10;99.90
35491;DHT22;21605;52.068;20.806;2023-01-15T02:11:42;5.10;99.90
35491;DHT22;21605;52.068;20.806;2023-01-15T02:14:35;5.00;99.90
35491;DHT22;21605;52.068;20.806;2023-01-15T02:25:50;4.90;99.90
35491;DHT22;21605;52.068;20.806;2023-01-15T02:27:50;4.90;99.90
35491;DHT22;21605;52.068;20.806;2023-01-15T02:30:34;4.90;99.90
35491;DHT22;21605;52.068;20.806;2023-01-15T02:33:07;4.90;99.90
35491;DHT22;21605;52.068;20.806;2023-01-15T02:35:49;4.80;99.90
35491;DHT22;21605;52.068;20.806;2023-01-15T02:38:21;4.80;99.90
35491;DHT22;21605;52.068;20.806;2023-01-15T02:40:51;4.90;99.90
35491;DHT22;21605;52.068;20.806;2023-01-15T02:43:19;5.60;99.90
35491;DHT22;21605;52.068;20.806;2023-01-15T02:45:48;5.90;99.90
35491;DHT22;21605;52.068;20.806;2023-01-15T02:48:23;4.80;99.90
35491;DHT22;21605;52.068;20.806;2023-01-15T02:50:54;4.80;99.90
35491;DHT22;21605;52.068;20.806;2023-01-15T02:53:24;4.80;99.90
35491;DHT22;21605;52.068;20.806;2023-01-15T02:55:53;4.80;99.90
35491;DHT22;21605;52.068;20.806;2023-01-15T02:58:23;4.80;99.90
35491;DHT22;21605;52.068;20.806;2023-01-15T03:00:51;4.80;99.90
35491;DHT22;21605;52.068;20.806;2023-01-15T03:08:57;4.90;99.90
35491;DHT22;21605;52.068;20.806;2023-01-15T03:11:22;4.90;99.90
35491;DHT22;21605;52.068;20.806;2023-01-15T03:22:01;4.90;99.90
35491;DHT22;21605;52.068;20.806;2023-01-15T03:27:00;4.80;99.90
35491;DHT22;21605;52.068;20.806;2023-01-15T03:29:29;4.80;99.90
35491;DHT22;21605;52.068;20.806;2023-01-15T03:31:56;5.20;99.90
35491;DHT22;21605;52.068;20.806;2023-01-15T03:34:24;5.00;99.90
35491;DHT22;21605;52.068;20.806;2023-01-15T03:36:51;5.20;99.90
35491;DHT22;21605;52.068;20.806;2023-01-15T03:39:16;4.90;99.90
35491;DHT22;21605;52.068;20.806;2023-01-15T03:42:01;4.90;99.90
35491;DHT22;21605;52.068;20.806;2023-01-15T03:44:38;4.90;99.90
35491;DHT22;21605;52.068;20.806;2023-01-15T03:47:44;4.90;99.90
35491;DHT22;21605;52.068;20.806;2023-01-15T03:55:44;5.00;99.90
35491;DHT22;21605;52.068;20.806;2023-01-15T04:00:53;4.90;99.90
35491;DHT22;21605;52.068;20.806;2023-01-15T04:03:22;4.90;99.90
35491;DHT22;21605;52.068;20.806;2023-01-15T04:05:50;5.00;99.90
35491;DHT22;21605;52.068;20.806;2023-01-15T04:08:18;4.90;99.90
35491;DHT22;21605;52.068;20.806;2023-01-15T04:10:55;4.90;99.90
35491;DHT22;21605;52.068;20.806;2023-01-15T04:13:27;4.90;99.90
35491;DHT22;21605;52.068;20.806;2023-01-15T04:15:54;5.10;99.90
35491;DHT22;21605;52.068;20.806;2023-01-15T04:18:23;5.10;99.90
35491;DHT22;21605;52.068;20.806;2023-01-15T04:20:48;5.00;99.90
35491;DHT22;21605;52.068;20.806;2023-01-15T04:23:23;5.00;99.90
35491;DHT22;21605;52.068;20.806;2023-01-15T04:25:49;5.10;99.90
35491;DHT22;21605;52.068;20.806;2023-01-15T04:28:23;5.10;99.90
35491;DHT22;21605;52.068;20.806;2023-01-15T04:30:49;5.00;99.90
35491;DHT22;21605;52.068;20.806;2023-01-15T04:33:24;5.20;99.90
35491;DHT22;21605;52.068;20.806;2023-01-15T04:35:49;5.10;99.90
35491;DHT22;21605;52.068;20.806;2023-01-15T04:38:24;5.10;99.90
35491;DHT22;21605;52.068;20.806;2023-01-15T04:40:50;5.10;99.90
35491;DHT22;21605;52.068;20.806;2023-01-15T04:43:34;5.10;99.90
35491;DHT22;21605;52.068;20.806;2023-01-15T04:46:22;5.20;99.90
35491;DHT22;21605;52.068;20.806;2023-01-15T04:48:48;5.30;99.90
35491;DHT22;21605;52.068;20.806;2023-01-15T04:51:14;5.20;99.90
35491;DHT22;21605;52.068;20.806;2023-01-15T04:53:39;5.20;99.90
35491;DHT22;21605;52.068;20.806;2023-01-15T04:56:05;5.10;99.90
35491;DHT22;21605;52.068;20.806;2023-01-15T04:58:31;5.30;99.90
35491;DHT22;21605;52.068;20.806;2023-01-15T05:00:58;5.30;99.90
35491;DHT22;21605;52.068;20.806;2023-01-15T05:03:26;5.30;99.90
35491;DHT22;21605;52.068;20.806;2023-01-15T05:05:51;5.30;99.90
35491;DHT22;21605;52.068;20.806;2023-01-15T05:08:27;5.30;99.90
35491;DHT22;21605;52.068;20.806;2023-01-15T05:10:52;5.40;99.90
35491;DHT22;21605;52.068;20.806;2023-01-15T05:13:27;5.30;99.90
35491;DHT22;21605;52.068;20.806;2023-01-15T05:15:54;5.40;99.90
35491;DHT22;21605;52.068;20.806;2023-01-15T05:18:29;5.40;99.90
35491;DHT22;21605;52.068;20.806;2023-01-15T05:20:54;5.40;99.90
35491;DHT22;21605;52.068;20.806;2023-01-15T05:23:29;5.50;99.90
35491;DHT22;21605;52.068;20.806;2023-01-15T05:25:54;5.50;99.90
35491;DHT22;21605;52.068;20.806;2023-01-15T05:28:26;5.40;99.90
35491;DHT22;21605;52.068;20.806;2023-01-15T05:30:52;5.50;99.90
35491;DHT22;21605;52.068;20.806;2023-01-15T05:33:27;5.40;99.90
35491;DHT22;21605;52.068;20.806;2023-01-15T05:35:52;5.50;99.90
35491;DHT22;21605;52.068;20.806;2023-01-15T05:38:27;5.50;99.90
35491;DHT22;21605;52.068;20.806;2023-01-15T05:40:52;5.70;99.90
35491;DHT22;21605;52.068;20.806;2023-01-15T05:43:27;5.50;99.90
35491;DHT22;21605;52.068;20.806;2023-01-15T05:45:53;5.60;99.90
35491;DHT22;21605;52.068;20.806;2023-01-15T05:48:23;5.60;99.90
35491;DHT22;21605;52.068;20.806;2023-01-15T05:50:49;5.60;99.90
35491;DHT22;21605;52.068;20.806;2023-01-15T05:53:15;5.60;99.90
35491;DHT22;21605;52.068;20.806;2023-01-15T05:55:40;5.60;99.90
35491;DHT22;21605;52.068;20.806;2023-01-15T05:58:06;5.60;99.90
35491;DHT22;21605;52.068;20.806;2023-01-15T06:00:31;6.20;99.90
35491;DHT22;21605;52.068;20.806;2023-01-15T06:02:57;5.60;99.90
35491;DHT22;21605;52.068;20.806;2023-01-15T06:05:22;5.60;99.90
35491;DHT22;21605;52.068;20.806;2023-01-15T06:07:49;5.70;99.90
35491;DHT22;21605;52.068;20.806;2023-01-15T06:10:17;5.80;99.90
35491;DHT22;21605;52.068;20.806;2023-01-15T06:12:42;5.60;99.90
35491;DHT22;21605;52.068;20.806;2023-01-15T06:15:10;5.60;99.90
35491;DHT22;21605;52.068;20.806;2023-01-15T06:17:35;5.60;99.90
35491;DHT22;21605;52.068;20.806;2023-01-15T06:20:01;5.70;99.90
35491;DHT22;21605;52.068;20.806;2023-01-15T06:22:27;5.70;99.90
35491;DHT22;21605;52.068;20.806;2023-01-15T06:24:54;5.90;99.90
35491;DHT22;21605;52.068;20.806;2023-01-15T06:27:24;5.80;99.90
35491;DHT22;21605;52.068;20.806;2023-01-15T06:29:50;5.70;99.90
35491;DHT22;21605;52.068;20.806;2023-01-15T06:32:16;5.90;99.90
35491;DHT22;21605;52.068;20.806;2023-01-15T06:34:41;5.90;99.90
35491;DHT22;21605;52.068;20.806;2023-01-15T06:37:08;5.80;99.90
35491;DHT22;21605;52.068;20.806;2023-01-15T06:39:34;6.00;99.90
35491;DHT22;21605;52.068;20.806;2023-01-15T06:42:00;5.90;99.90
35491;DHT22;21605;52.068;20.806;2023-01-15T06:44:44;5.90;99.90
35491;DHT22;21605;52.068;20.806;2023-01-15T06:47:33;5.90;99.90
35491;DHT22;21605;52.068;20.806;2023-01-15T06:50:00;6.10;99.90
35491;DHT22;21605;52.068;20.806;2023-01-15T06:52:30;5.90;99.90
35491;DHT22;21605;52.068;20.806;2023-01-15T06:54:56;6.00;99.90
35491;DHT22;21605;52.068;20.806;2023-01-15T06:57:31;6.00;99.90
35491;DHT22;21605;52.068;20.806;2023-01-15T06:59:56;6.00;99.90
35491;DHT22;21605;52.068;20.806;2023-01-15T07:02:31;6.00;99.90
35491;DHT22;21605;52.068;20.806;2023-01-15T07:04:57;5.90;99.90
35491;DHT22;21605;52.068;20.806;2023-01-15T07:07:32;6.00;99.90
35491;DHT22;21605;52.068;20.806;2023-01-15T07:09:57;6.00;99.90
35491;DHT22;21605;52.068;20.806;2023-01-15T07:12:34;6.00;99.90
35491;DHT22;21605;52.068;20.806;2023-01-15T07:14:59;6.00;99.90
35491;DHT22;21605;52.068;20.806;2023-01-15T07:17:34;6.10;99.90
35491;DHT22;21605;52.068;20.806;2023-01-15T07:20:00;6.10;99.90
35491;DHT22;21605;52.068;20.806;2023-01-15T07:22:31;6.20;99.90
35491;DHT22;21605;52.068;20.806;2023-01-15T07:24:56;6.10;99.90
35491;DHT22;21605;52.068;20.806;2023-01-15T07:27:31;6.10;99.90
35491;DHT22;21605;52.068;20.806;2023-01-15T07:29:57;6.10;99.90
35491;DHT22;21605;52.068;20.806;2023-01-15T07:32:31;6.00;99.90
35491;DHT22;21605;52.068;20.806;2023-01-15T07:34:57;6.10;99.90
35491;DHT22;21605;52.068;20.806;2023-01-15T07:37:32;6.10;99.90
35491;DHT22;21605;52.068;20.806;2023-01-15T07:39:57;6.20;99.90
35491;DHT22;21605;52.068;20.806;2023-01-15T07:42:32;6.20;99.90
35491;DHT22;21605;52.068;20.806;2023-01-15T07:45:16;6.20;99.90
35491;DHT22;21605;52.068;20.806;2023-01-15T07:48:00;6.30;99.90
35491;DHT22;21605;52.068;20.806;2023-01-15T07:50:45;6.30;99.90
35491;DHT22;21605;52.068;20.806;2023-01-15T07:53:10;6.40;99.90
35491;DHT22;21605;52.068;20.806;2023-01-15T07:55:36;6.30;99.90
35491;DHT22;21605;52.068;20.806;2023-01-15T07:58:02;6.40;99.90
35491;DHT22;21605;52.068;20.806;2023-01-15T08:00:33;6.40;99.90
35491;DHT22;21605;52.068;20.806;2023-01-15T08:02:58;6.40;99.90
35491;DHT22;21605;52.068;20.806;2023-01-15T08:05:33;6.50;99.90
35491;DHT22;21605;52.068;20.806;2023-01-15T08:07:59;6.50;99.90
35491;DHT22;21605;52.068;20.806;2023-01-15T08:10:27;6.50;99.90
35491;DHT22;21605;52.068;20.806;2023-01-15T08:12:53;6.50;99.90
35491;DHT22;21605;52.068;20.806;2023-01-15T08:15:38;6.50;99.90
35491;DHT22;21605;52.068;20.806;2023-01-15T08:18:05;6.60;99.90
35491;DHT22;21605;52.068;20.806;2023-01-15T08:20:33;6.60;99.90
35491;DHT22;21605;52.068;20.806;2023-01-15T08:23:00;6.60;99.90
35491;DHT22;21605;52.068;20.806;2023-01-15T08:25:26;6.60;99.90
35491;DHT22;21605;52.068;20.806;2023-01-15T08:27:51;6.90;99.90
35491;DHT22;21605;52.068;20.806;2023-01-15T08:30:22;6.80;99.90
35491;DHT22;21605;52.068;20.806;2023-01-15T08:32:48;6.70;99.90
35491;DHT22;21605;52.068;20.806;2023-01-15T08:35:14;6.70;99.90
35491;DHT22;21605;52.068;20.806;2023-01-15T08:37:41;6.70;99.90
35491;DHT22;21605;52.068;20.806;2023-01-15T08:40:08;6.70;99.90
35491;DHT22;21605;52.068;20.806;2023-01-15T08:42:34;6.70;99.90
35491;DHT22;21605;52.068;20.806;2023-01-15T08:44:59;6.90;99.90
35491;DHT22;21605;52.068;20.806;2023-01-15T08:47:34;6.80;99.90
35491;DHT22;21605;52.068;20.806;2023-01-15T08:50:01;6.90;99.90
35491;DHT22;21605;52.068;20.806;2023-01-15T08:52:27;6.80;99.90
35491;DHT22;21605;52.068;20.806;2023-01-15T08:54:52;6.90;99.90
35491;DHT22;21605;52.068;20.806;2023-01-15T08:57:18;6.90;99.90
35491;DHT22;21605;52.068;20.806;2023-01-15T08:59:43;6.90;99.90
35491;DHT22;21605;52.068;20.806;2023-01-15T09:02:13;6.90;99.90
35491;DHT22;21605;52.068;20.806;2023-01-15T09:04:39;7.30;99.90
35491;DHT22;21605;52.068;20.806;2023-01-15T09:07:05;7.00;99.90
35491;DHT22;21605;52.068;20.806;2023-01-15T09:09:37;6.90;99.90
35491;DHT22;21605;52.068;20.806;2023-01-15T09:12:02;7.00;99.90
35491;DHT22;21605;52.068;20.806;2023-01-15T09:14:28;7.00;99.90
35491;DHT22;21605;52.068;20.806;2023-01-15T09:16:54;7.00;99.90
35491;DHT22;21605;52.068;20.806;2023-01-15T09:19:20;7.10;99.90
35491;DHT22;21605;52.068;20.806;2023-01-15T09:21:46;7.00;99.90
35491;DHT22;21605;52.068;20.806;2023-01-15T09:24:11;7.10;99.90
35491;DHT22;21605;52.068;20.806;2023-01-15T09:26:38;7.20;99.90
35491;DHT22;21605;52.068;20.806;2023-01-15T09:29:05;7.10;99.90
35491;DHT22;21605;52.068;20.806;2023-01-15T09:31:32;7.20;99.90
35491;DHT22;21605;52.068;20.806;2023-01-15T09:33:58;7.30;99.90
35491;DHT22;21605;52.068;20.806;2023-01-15T09:36:27;7.30;99.90
35491;DHT22;21605;52.068;20.806;2023-01-15T09:38:54;7.30;99.90
35491;DHT22;21605;52.068;20.806;2023-01-15T09:41:20;7.30;99.90
35491;DHT22;21605;52.068;20.806;2023-01-15T09:44:19;7.40;99.90
35491;DHT22;21605;52.068;20.806;2023-01-15T09:47:03;7.30;99.90
35491;DHT22;21605;52.068;20.806;2023-01-15T09:57:39;7.40;99.90
35491;DHT22;21605;52.068;20.806;2023-01-15T10:00:06;7.40;99.90
35491;DHT22;21605;52.068;20.806;2023-01-15T10:02:42;7.40;99.90
35491;DHT22;21605;52.068;20.806;2023-01-15T10:10:44;7.50;99.90
35491;DHT22;21605;52.068;20.806;2023-01-15T10:15:48;7.50;99.90
35491;DHT22;21605;52.068;20.806;2023-01-15T10:18:20;7.50;99.90
35491;DHT22;21605;52.068;20.806;2023-01-15T10:20:52;7.60;99.90
35491;DHT22;21605;52.068;20.806;2023-01-15T10:23:42;7.50;99.90
35491;DHT22;21605;52.068;20.806;2023-01-15T10:26:38;7.50;99.90
35491;DHT22;21605;52.068;20.806;2023-01-15T10:43:58;7.60;99.90
35491;DHT22;21605;52.068;20.806;2023-01-15T10:46:30;7.80;99.90
35491;DHT22;21605;52.068;20.806;2023-01-15T10:49:16;7.60;99.90
35491;DHT22;21605;52.068;20.806;2023-01-15T10:51:49;7.60;99.90
35491;DHT22;21605;52.068;20.806;2023-01-15T10:57:19;7.70;99.90
35491;DHT22;21605;52.068;20.806;2023-01-15T10:59:55;7.70;99.90
35491;DHT22;21605;52.068;20.806;2023-01-15T11:02:44;7.70;99.90
35491;DHT22;21605;52.068;20.806;2023-01-15T11:05:14;7.60;99.90
35491;DHT22;21605;52.068;20.806;2023-01-15T11:07:43;7.70;99.90
35491;DHT22;21605;52.068;20.806;2023-01-15T11:10:12;7.60;99.90
35491;DHT22;21605;52.068;20.806;2023-01-15T11:12:42;7.90;99.90
35491;DHT22;21605;52.068;20.806;2023-01-15T11:15:28;7.70;99.90
35491;DHT22;21605;52.068;20.806;2023-01-15T11:18:23;7.80;99.90
35491;DHT22;21605;52.068;20.806;2023-01-15T11:21:17;7.70;99.90
35491;DHT22;21605;52.068;20.806;2023-01-15T11:23:44;9.20;99.90
35491;DHT22;21605;52.068;20.806;2023-01-15T11:26:16;7.70;99.90
35491;DHT22;21605;52.068;20.806;2023-01-15T11:28:45;7.70;99.90
35491;DHT22;21605;52.068;20.806;2023-01-15T11:31:12;7.70;99.90
35491;DHT22;21605;52.068;20.806;2023-01-15T11:34:05;8.10;99.90
35491;DHT22;21605;52.068;20.806;2023-01-15T11:36:30;7.70;99.90
35491;DHT22;21605;52.068;20.806;2023-01-15T11:38:57;7.90;99.90
35491;DHT22;21605;52.068;20.806;2023-01-15T11:41:28;7.80;99.90
35491;DHT22;21605;52.068;20.806;2023-01-15T11:44:14;7.70;99.90
35491;DHT22;21605;52.068;20.806;2023-01-15T11:46:58;7.70;99.90
35491;DHT22;21605;52.068;20.806;2023-01-15T11:49:52;7.80;99.90
35491;DHT22;21605;52.068;20.806;2023-01-15T11:52:53;7.80;99.90
35491;DHT22;21605;52.068;20.806;2023-01-15T11:55:22;7.80;99.90
35491;DHT22;21605;52.068;20.806;2023-01-15T11:57:50;7.80;99.90
35491;DHT22;21605;52.068;20.806;2023-01-15T12:00:37;7.80;99.90
35491;DHT22;21605;52.068;20.806;2023-01-15T12:03:19;7.90;99.90
35491;DHT22;21605;52.068;20.806;2023-01-15T12:05:52;7.80;99.90
35491;DHT22;21605;52.068;20.806;2023-01-15T12:10:54;8.20;99.90
35491;DHT22;21605;52.068;20.806;2023-01-15T12:24:49;8.00;99.90
35491;DHT22;21605;52.068;20.806;2023-01-15T12:29:50;8.00;99.90
35491;DHT22;21605;52.068;20.806;2023-01-15T12:32:25;8.00;99.90
35491;DHT22;21605;52.068;20.806;2023-01-15T12:34:58;8.00;99.90
35491;DHT22;21605;52.068;20.806;2023-01-15T12:37:35;8.20;99.90
35491;DHT22;21605;52.068;20.806;2023-01-15T12:40:29;8.10;99.90
35491;DHT22;21605;52.068;20.806;2023-01-15T12:42:57;8.10;99.90
35491;DHT22;21605;52.068;20.806;2023-01-15T12:45:50;8.10;99.90
35491;DHT22;21605;52.068;20.806;2023-01-15T12:48:27;8.10;99.90
35491;DHT22;21605;52.068;20.806;2023-01-15T12:50:58;8.20;99.90
35491;DHT22;21605;52.068;20.806;2023-01-15T12:53:49;8.20;99.90
35491;DHT22;21605;52.068;20.806;2023-01-15T12:56:23;8.20;99.90
35491;DHT22;21605;52.068;20.806;2023-01-15T12:59:05;8.20;99.90
35491;DHT22;21605;52.068;20.806;2023-01-15T13:01:56;8.20;99.90
35491;DHT22;21605;52.068;20.806;2023-01-15T13:07:03;8.20;99.90
35491;DHT22;21605;52.068;20.806;2023-01-15T13:11:57;8.30;99.90
35491;DHT22;21605;52.068;20.806;2023-01-15T13:14:23;8.30;99.90
35491;DHT22;21605;52.068;20.806;2023-01-15T13:16:52;8.40;99.90
35491;DHT22;21605;52.068;20.806;2023-01-15T13:22:02;8.30;99.90
35491;DHT22;21605;52.068;20.806;2023-01-15T13:27:37;8.30;99.90
35491;DHT22;21605;52.068;20.806;2023-01-15T13:33:21;8.40;99.90
35491;DHT22;21605;52.068;20.806;2023-01-15T13:35:55;8.30;99.90
35491;DHT22;21605;52.068;20.806;2023-01-15T13:38:25;8.50;99.90
35491;DHT22;21605;52.068;20.806;2023-01-15T13:40:54;8.40;99.90
35491;DHT22;21605;52.068;20.806;2023-01-15T13:43:48;8.40;99.90
35491;DHT22;21605;52.068;20.806;2023-01-15T13:46:20;8.30;99.90
35491;DHT22;21605;52.068;20.806;2023-01-15T13:48:50;8.40;99.90
35491;DHT22;21605;52.068;20.806;2023-01-15T13:51:27;8.40;99.80
35491;DHT22;21605;52.068;20.806;2023-01-15T13:53:55;8.30;99.60
35491;DHT22;21605;52.068;20.806;2023-01-15T13:56:29;8.40;99.90
35491;DHT22;21605;52.068;20.806;2023-01-15T13:59:04;8.40;99.90
35491;DHT22;21605;52.068;20.806;2023-01-15T14:09:04;8.40;99.30
35491;DHT22;21605;52.068;20.806;2023-01-15T14:23:41;8.40;99.30
35491;DHT22;21605;52.068;20.806;2023-01-15T14:34:59;8.40;99.20
35491;DHT22;21605;52.068;20.806;2023-01-15T14:37:30;8.50;99.10
35491;DHT22;21605;52.068;20.806;2023-01-15T14:40:02;8.40;99.30
35491;DHT22;21605;52.068;20.806;2023-01-15T14:42:31;8.50;99.10
35491;DHT22;21605;52.068;20.806;2023-01-15T14:45:23;8.50;98.90
35491;DHT22;21605;52.068;20.806;2023-01-15T14:48:04;8.40;99.10
35491;DHT22;21605;52.068;20.806;2023-01-15T14:50:36;8.50;99.40
35491;DHT22;21605;52.068;20.806;2023-01-15T14:53:13;8.50;99.10
35491;DHT22;21605;52.068;20.806;2023-01-15T15:00:59;8.50;99.60
35491;DHT22;21605;52.068;20.806;2023-01-15T15:03:33;8.40;99.30
35491;DHT22;21605;52.068;20.806;2023-01-15T15:06:00;8.40;99.20
35491;DHT22;21605;52.068;20.806;2023-01-15T15:08:29;8.40;99.40
35491;DHT22;21605;52.068;20.806;2023-01-15T15:10:57;8.40;99.40
35491;DHT22;21605;52.068;20.806;2023-01-15T15:13:30;8.50;99.40
35491;DHT22;21605;52.068;20.806;2023-01-15T15:16:12;8.50;99.50
35491;DHT22;21605;52.068;20.806;2023-01-15T15:18:46;8.60;99.40
35491;DHT22;21605;52.068;20.806;2023-01-15T15:21:19;8.50;99.10
35491;DHT22;21605;52.068;20.806;2023-01-15T15:24:04;8.60;99.20
35491;DHT22;21605;52.068;20.806;2023-01-15T15:26:33;8.60;98.90
35491;DHT22;21605;52.068;20.806;2023-01-15T15:29:04;8.50;99.00
35491;DHT22;21605;52.068;20.806;2023-01-15T15:31:33;8.50;99.40
35491;DHT22;21605;52.068;20.806;2023-01-15T15:34:00;8.40;99.50
35491;DHT22;21605;52.068;20.806;2023-01-15T15:36:31;8.40;99.60
35491;DHT22;21605;52.068;20.806;2023-01-15T15:39:02;8.50;99.80
35491;DHT22;21605;52.068;20.806;2023-01-15T15:41:31;8.50;99.90
35491;DHT22;21605;52.068;20.806;2023-01-15T15:45:06;8.40;99.50
35491;DHT22;21605;52.068;20.806;2023-01-15T15:47:37;8.50;99.80
35491;DHT22;21605;52.068;20.806;2023-01-15T15:50:33;8.50;99.80
35491;DHT22;21605;52.068;20.806;2023-01-15T15:53:00;8.60;99.80
35491;DHT22;21605;52.068;20.806;2023-01-15T15:55:40;9.60;99.90
35491;DHT22;21605;52.068;20.806;2023-01-15T15:58:08;8.60;99.80
35491;DHT22;21605;52.068;20.806;2023-01-15T16:00:40;8.50;99.90
35491;DHT22;21605;52.068;20.806;2023-01-15T16:03:17;8.50;99.50
35491;DHT22;21605;52.068;20.806;2023-01-15T16:08:22;8.50;99.90
35491;DHT22;21605;52.068;20.806;2023-01-15T16:10:56;8.50;99.90
35491;DHT22;21605;52.068;20.806;2023-01-15T16:13:37;8.50;99.90
35491;DHT22;21605;52.068;20.806;2023-01-15T16:16:04;8.50;99.90
35491;DHT22;21605;52.068;20.806;2023-01-15T16:18:41;8.50;99.90
35491;DHT22;21605;52.068;20.806;2023-01-15T16:21:10;8.50;99.90
35491;DHT22;21605;52.068;20.806;2023-01-15T16:23:36;8.60;99.90
35491;DHT22;21605;52.068;20.806;2023-01-15T16:28:35;8.50;99.90
35491;DHT22;21605;52.068;20.806;2023-01-15T16:31:01;8.50;99.90
35491;DHT22;21605;52.068;20.806;2023-01-15T16:33:28;8.40;99.90
35491;DHT22;21605;52.068;20.806;2023-01-15T16:36:00;8.40;99.90
35491;DHT22;21605;52.068;20.806;2023-01-15T16:38:31;8.50;99.90
35491;DHT22;21605;52.068;20.806;2023-01-15T16:40:58;8.40;99.90
35491;DHT22;21605;52.068;20.806;2023-01-15T16:43:26;8.30;99.90
35491;DHT22;21605;52.068;20.806;2023-01-15T16:46:01;8.40;99.90
35491;DHT22;21605;52.068;20.806;2023-01-15T16:48:32;8.30;99.90
35491;DHT22;21605;52.068;20.806;2023-01-15T16:51:40;8.30;99.90
35491;DHT22;21605;52.068;20.806;2023-01-15T16:57:00;8.30;99.90
35491;DHT22;21605;52.068;20.806;2023-01-15T17:02:14;8.20;99.90
35491;DHT22;21605;52.068;20.806;2023-01-15T17:04:43;8.20;99.90
35491;DHT22;21605;52.068;20.806;2023-01-15T17:09:43;8.10;99.90
35491;DHT22;21605;52.068;20.806;2023-01-15T17:12:33;8.10;99.90
35491;DHT22;21605;52.068;20.806;2023-01-15T17:17:57;8.20;99.90
35491;DHT22;21605;52.068;20.806;2023-01-15T17:20:24;8.10;99.90
35491;DHT22;21605;52.068;20.806;2023-01-15T17:22:57;7.90;99.90
35491;DHT22;21605;52.068;20.806;2023-01-15T17:25:25;7.90;99.90
35491;DHT22;21605;52.068;20.806;2023-01-15T17:27:58;7.90;99.90
35491;DHT22;21605;52.068;20.806;2023-01-15T17:30:25;8.00;99.90
35491;DHT22;21605;52.068;20.806;2023-01-15T17:32:59;7.90;99.90
35491;DHT22;21605;52.068;20.806;2023-01-15T17:35:34;7.80;99.90
35491;DHT22;21605;52.068;20.806;2023-01-15T17:38:00;7.80;99.90
35491;DHT22;21605;52.068;20.806;2023-01-15T17:40:26;7.80;99.90
35491;DHT22;21605;52.068;20.806;2023-01-15T17:42:58;7.70;99.90
35491;DHT22;21605;52.068;20.806;2023-01-15T17:45:26;7.70;99.90
35491;DHT22;21605;52.068;20.806;2023-01-15T17:47:52;7.60;99.90
35491;DHT22;21605;52.068;20.806;2023-01-15T17:50:18;7.90;99.90
35491;DHT22;21605;52.068;20.806;2023-01-15T17:52:43;7.50;99.90
35491;DHT22;21605;52.068;20.806;2023-01-15T17:55:15;7.50;99.90
35491;DHT22;21605;52.068;20.806;2023-01-15T17:57:59;7.60;99.90
35491;DHT22;21605;52.068;20.806;2023-01-15T18:00:43;7.60;99.90
35491;DHT22;21605;52.068;20.806;2023-01-15T18:03:29;7.50;99.90
35491;DHT22;21605;52.068;20.806;2023-01-15T18:06:14;7.50;99.90
35491;DHT22;21605;52.068;20.806;2023-01-15T18:08:43;8.80;99.90
35491;DHT22;21605;52.068;20.806;2023-01-15T18:11:10;7.50;99.90
35491;DHT22;21605;52.068;20.806;2023-01-15T18:13:36;7.50;99.90
35491;DHT22;21605;52.068;20.806;2023-01-15T18:16:01;7.50;99.90
35491;DHT22;21605;52.068;20.806;2023-01-15T18:18:27;7.40;99.90
35491;DHT22;21605;52.068;20.806;2023-01-15T18:21:02;7.50;99.90
35491;DHT22;21605;52.068;20.806;2023-01-15T18:23:28;7.40;99.90
35491;DHT22;21605;52.068;20.806;2023-01-15T18:26:06;7.30;99.90